| time (UTC) | temp C | wind direction | speed KPH | gust KPH | rain 1hr cm | rain 24hr cm | rain mn cm | humidity % | barometer mb |
| 20260507221730 | 28 | 203 | 6.4 | 9.7 | 0.00 | 0.00 | 0.00 | 77 | 1015.9 |
| 20260507221226 | 28 | 245 | 1.6 | 9.7 | 0.00 | 0.00 | 0.00 | 77 | 1015.9 |
| 20260507220722 | 28 | 106 | 3.2 | 6.4 | 0.00 | 0.00 | 0.00 | 76 | 1015.9 |
| 20260507220221 | 28 | 179 | 3.2 | 4.8 | 0.00 | 0.00 | 0.00 | 77 | 1016.0 |
| 20260507215717 | 28 | 136 | 1.6 | 4.8 | 0.00 | 0.00 | 0.00 | 76 | 1016.0 |
| 20260507215214 | 28 | 47 | 6.4 | 9.7 | 0.00 | 0.00 | 0.00 | 76 | 1015.9 |
| 20260507214711 | 28 | 71 | 3.2 | 9.7 | 0.00 | 0.00 | 0.00 | 77 | 1015.8 |
| 20260507214208 | 28 | 155 | 4.8 | 9.7 | 0.00 | 0.00 | 0.00 | 77 | 1015.8 |
| 20260507213704 | 28 | 146 | 4.8 | 11.3 | 0.00 | 0.00 | 0.00 | 77 | 1015.6 |
| 20260507213201 | 28 | 47 | 4.8 | 12.9 | 0.00 | 0.00 | 0.00 | 77 | 1015.7 |
| 20260507212657 | 28 | 110 | 6.4 | 11.3 | 0.00 | 0.00 | 0.00 | 76 | 1015.7 |
| 20260507212154 | 29 | 209 | 1.6 | 4.8 | 0.00 | 0.00 | 0.00 | 76 | 1015.4 |
| 20260507211651 | 29 | 147 | 3.2 | 11.3 | 0.00 | 0.00 | 0.00 | 75 | 1015.5 |
| 20260507211146 | 29 | 211 | 1.6 | 9.7 | 0.00 | 0.00 | 0.00 | 75 | 1015.4 |
| 20260507210644 | 29 | 312 | 6.4 | 14.5 | 0.00 | 0.00 | 0.00 | 74 | 1015.6 |
| 20260507210140 | 29 | 18 | 6.4 | 11.3 | 0.00 | 0.00 | 0.00 | 74 | 1015.3 |
| 20260507205637 | 29 | 240 | 0.0 | 6.4 | 0.00 | 0.00 | 0.00 | 74 | 1015.5 |
| 20260507205134 | 30 | 110 | 3.2 | 12.9 | 0.00 | 0.00 | 0.00 | 74 | 1015.5 |
| 20260507204630 | 30 | 356 | 8.0 | 14.5 | 0.00 | 0.00 | 0.00 | 71 | 1015.3 |
| 20260507204128 | 30 | 225 | 3.2 | 16.1 | 0.00 | 0.00 | 0.00 | 73 | 1015.3 |
| 20260507203626 | 30 | 177 | 3.2 | 9.7 | 0.00 | 0.00 | 0.00 | 73 | 1015.3 |
| 20260507203123 | 30 | 179 | 6.4 | 9.7 | 0.00 | 0.00 | 0.00 | 72 | 1015.4 |
| 20260507202618 | 30 | 132 | 3.2 | 9.7 | 0.00 | 0.00 | 0.00 | 72 | 1015.6 |
| 20260507202115 | 30 | 118 | 6.4 | 12.9 | 0.00 | 0.00 | 0.00 | 71 | 1015.4 |
| 20260507201610 | 31 | 116 | 3.2 | 12.9 | 0.00 | 0.00 | 0.00 | 71 | 1015.3 |
| 20260507201107 | 31 | 135 | 3.2 | 6.4 | 0.00 | 0.00 | 0.00 | 71 | 1015.5 |
| 20260507200602 | 31 | 212 | 1.6 | 9.7 | 0.00 | 0.00 | 0.00 | 71 | 1015.5 |
| 20260507200059 | 31 | 59 | 4.8 | 14.5 | 0.00 | 0.00 | 0.00 | 71 | 1015.6 |
| 20260507195556 | 31 | 125 | 4.8 | 11.3 | 0.00 | 0.00 | 0.00 | 70 | 1015.7 |
| 20260507195054 | 31 | 158 | 3.2 | 20.9 | 0.00 | 0.00 | 0.00 | 71 | 1015.5 |
| 20260507194549 | 31 | 208 | 3.2 | 14.5 | 0.00 | 0.00 | 0.00 | 70 | 1015.7 |
| 20260507194045 | 31 | 92 | 6.4 | 17.7 | 0.00 | 0.00 | 0.00 | 69 | 1015.7 |
| 20260507193543 | 31 | 202 | 4.8 | 16.1 | 0.00 | 0.00 | 0.00 | 69 | 1015.8 |
| 20260507193040 | 31 | 186 | 1.6 | 9.7 | 0.00 | 0.00 | 0.00 | 70 | 1015.7 |
| 20260507192536 | 31 | 191 | 4.8 | 11.3 | 0.00 | 0.00 | 0.00 | 69 | 1015.8 |
| 20260507192033 | 31 | 142 | 3.2 | 16.1 | 0.00 | 0.00 | 0.00 | 70 | 1015.8 |
| 20260507191528 | 31 | 198 | 3.2 | 17.7 | 0.00 | 0.00 | 0.00 | 69 | 1016.1 |
| 20260507191026 | 31 | 276 | 4.8 | 14.5 | 0.00 | 0.00 | 0.00 | 69 | 1015.9 |
| 20260507190523 | 31 | 131 | 6.4 | 11.3 | 0.00 | 0.00 | 0.00 | 69 | 1016.0 |
| 20260507190022 | 31 | 116 | 3.2 | 11.3 | 0.00 | 0.00 | 0.00 | 70 | 1015.9 |
| 20260507185520 | 31 | 181 | 3.2 | 11.3 | 0.00 | 0.00 | 0.00 | 70 | 1015.9 |
| 20260507185016 | 31 | 232 | 6.4 | 11.3 | 0.00 | 0.00 | 0.00 | 70 | 1016.0 |
| 20260507184514 | 31 | 180 | 3.2 | 17.7 | 0.00 | 0.00 | 0.00 | 70 | 1016.2 |
| 20260507184012 | 31 | 66 | 6.4 | 12.9 | 0.00 | 0.00 | 0.00 | 69 | 1016.1 |
| 20260507183507 | 31 | 110 | 4.8 | 11.3 | 0.00 | 0.00 | 0.00 | 70 | 1016.1 |
| 20260507183005 | 31 | 78 | 4.8 | 16.1 | 0.00 | 0.00 | 0.00 | 69 | 1016.0 |
| 20260507182500 | 31 | 249 | 8.0 | 14.5 | 0.00 | 0.00 | 0.00 | 69 | 1016.0 |
| 20260507181957 | 31 | 167 | 4.8 | 24.1 | 0.00 | 0.00 | 0.00 | 70 | 1016.3 |
| 20260507181453 | 31 | 163 | 1.6 | 16.1 | 0.00 | 0.00 | 0.00 | 71 | 1016.2 |
| 20260507180950 | 31 | 94 | 4.8 | 14.5 | 0.00 | 0.00 | 0.00 | 71 | 1016.4 |
| 20260507180447 | 31 | 327 | 3.2 | 20.9 | 0.00 | 0.00 | 0.00 | 70 | 1016.4 |
| 20260507175943 | 31 | 307 | 3.2 | 16.1 | 0.00 | 0.00 | 0.00 | 70 | 1016.2 |
| 20260507175440 | 31 | 259 | 3.2 | 12.9 | 0.00 | 0.00 | 0.00 | 71 | 1016.5 |
| 20260507174937 | 31 | 22 | 6.4 | 22.5 | 0.00 | 0.00 | 0.00 | 69 | 1016.6 |
| 20260507174434 | 31 | 73 | 3.2 | 11.3 | 0.00 | 0.00 | 0.00 | 71 | 1016.6 |
| 20260507173932 | 31 | 199 | 8.0 | 12.9 | 0.00 | 0.00 | 0.00 | 70 | 1016.6 |
| 20260507173429 | 31 | 6 | 6.4 | 14.5 | 0.00 | 0.00 | 0.00 | 70 | 1016.6 |
| 20260507172925 | 31 | 12 | 3.2 | 17.7 | 0.00 | 0.00 | 0.00 | 70 | 1016.8 |
| 20260507172422 | 31 | 164 | 1.6 | 9.7 | 0.00 | 0.00 | 0.00 | 71 | 1016.7 |
| 20260507171918 | 31 | 216 | 6.4 | 17.7 | 0.00 | 0.00 | 0.00 | 69 | 1017.0 |
| 20260507171415 | 31 | 79 | 3.2 | 14.5 | 0.00 | 0.00 | 0.00 | 70 | 1017.1 |
| 20260507170912 | 31 | 112 | 4.8 | 22.5 | 0.00 | 0.00 | 0.00 | 70 | 1017.2 |
| 20260507170408 | 31 | 250 | 1.6 | 6.4 | 0.00 | 0.00 | 0.00 | 69 | 1017.4 |
| 20260507165904 | 31 | 318 | 6.4 | 12.9 | 0.00 | 0.00 | 0.00 | 70 | 1017.3 |
| 20260507165400 | 31 | 147 | 1.6 | 4.8 | 0.00 | 0.00 | 0.00 | 71 | 1017.3 |
| 20260507164856 | 31 | 74 | 8.0 | 14.5 | 0.00 | 0.00 | 0.00 | 70 | 1017.5 |
| 20260507164354 | 31 | 149 | 8.0 | 14.5 | 0.00 | 0.00 | 0.00 | 70 | 1017.6 |
| 20260507163851 | 31 | 64 | 6.4 | 16.1 | 0.00 | 0.00 | 0.00 | 70 | 1017.6 |
| 20260507163348 | 31 | 163 | 4.8 | 14.5 | 0.00 | 0.00 | 0.00 | 71 | 1017.7 |
| 20260507162845 | 31 | 102 | 3.2 | 11.3 | 0.00 | 0.00 | 0.00 | 70 | 1017.6 |
| 20260507162340 | 31 | 104 | 3.2 | 16.1 | 0.00 | 0.00 | 0.00 | 70 | 1017.9 |
| 20260507161837 | 31 | 325 | 3.2 | 11.3 | 0.00 | 0.00 | 0.00 | 71 | 1017.9 |
| 20260507161334 | 31 | 210 | 4.8 | 14.5 | 0.00 | 0.00 | 0.00 | 69 | 1018.0 |
| 20260507160830 | 31 | 88 | 8.0 | 12.9 | 0.00 | 0.00 | 0.00 | 69 | 1017.9 |
| 20260507160326 | 31 | 53 | 8.0 | 12.9 | 0.00 | 0.00 | 0.00 | 70 | 1017.9 |
| 20260507155823 | 31 | 195 | 4.8 | 11.3 | 0.00 | 0.00 | 0.00 | 72 | 1017.8 |
| 20260507155319 | 31 | 124 | 6.4 | 14.5 | 0.00 | 0.00 | 0.00 | 71 | 1017.9 |
| 20260507154815 | 31 | 115 | 9.7 | 14.5 | 0.00 | 0.00 | 0.00 | 71 | 1018.1 |
| 20260507154313 | 31 | 118 | 4.8 | 25.7 | 0.00 | 0.00 | 0.00 | 72 | 1018.0 |
| 20260507153809 | 31 | 244 | 3.2 | 12.9 | 0.00 | 0.00 | 0.00 | 71 | 1018.0 |
| 20260507153306 | 31 | 303 | 3.2 | 12.9 | 0.00 | 0.00 | 0.00 | 71 | 1018.0 |
| 20260507152802 | 31 | 112 | 3.2 | 6.4 | 0.00 | 0.00 | 0.00 | 71 | 1018.0 |
| 20260507152259 | 31 | 80 | 3.2 | 4.8 | 0.00 | 0.00 | 0.00 | 70 | 1018.4 |
| 20260507151754 | 31 | 17 | 1.6 | 9.7 | 0.00 | 0.00 | 0.00 | 70 | 1018.4 |
| 20260507151251 | 31 | 161 | 4.8 | 6.4 | 0.00 | 0.00 | 0.00 | 71 | 1018.2 |
| 20260507150748 | 31 | 316 | 3.2 | 4.8 | 0.00 | 0.00 | 0.00 | 71 | 1018.2 |
| 20260507150245 | 31 | 235 | 1.6 | 17.7 | 0.00 | 0.00 | 0.00 | 71 | 1018.3 |
| 20260507145741 | 31 | 237 | 4.8 | 12.9 | 0.00 | 0.00 | 0.00 | 71 | 1018.3 |
| 20260507145238 | 31 | 187 | 1.6 | 6.4 | 0.00 | 0.00 | 0.00 | 71 | 1018.3 |
| 20260507144735 | 31 | 240 | 1.6 | 11.3 | 0.00 | 0.00 | 0.00 | 71 | 1018.3 |
| 20260507144232 | 31 | 258 | 3.2 | 11.3 | 0.00 | 0.00 | 0.00 | 70 | 1018.4 |
| 20260507143729 | 31 | 288 | 3.2 | 9.7 | 0.00 | 0.00 | 0.00 | 72 | 1018.5 |
| 20260507143226 | 31 | 152 | 3.2 | 6.4 | 0.00 | 0.00 | 0.00 | 72 | 1018.4 |
| 20260507142722 | 31 | 155 | 3.2 | 12.9 | 0.00 | 0.00 | 0.00 | 72 | 1018.5 |
| 20260507142219 | 30 | 270 | 4.8 | 14.5 | 0.00 | 0.00 | 0.00 | 72 | 1018.6 |
| 20260507141715 | 30 | 341 | 1.6 | 9.7 | 0.00 | 0.00 | 0.00 | 72 | 1018.3 |
| 20260507141212 | 31 | 292 | 1.6 | 11.3 | 0.00 | 0.00 | 0.00 | 72 | 1018.6 |
| 20260507140708 | 30 | 286 | 1.6 | 9.7 | 0.00 | 0.00 | 0.00 | 73 | 1018.6 |
| 20260507140206 | 30 | 338 | 6.4 | 12.9 | 0.00 | 0.00 | 0.00 | 73 | 1018.5 |
| 20260507135703 | 30 | 209 | 3.2 | 11.3 | 0.00 | 0.00 | 0.00 | 73 | 1018.6 |
| 20260507135200 | 30 | 323 | 6.4 | 12.9 | 0.00 | 0.00 | 0.00 | 73 | 1018.6 |
| 20260507134657 | 30 | 208 | 1.6 | 4.8 | 0.00 | 0.00 | 0.00 | 74 | 1018.5 |
| 20260507134152 | 30 | 112 | 4.8 | 6.4 | 0.00 | 0.00 | 0.00 | 73 | 1018.6 |
| 20260507133648 | 30 | 353 | 3.2 | 9.7 | 0.00 | 0.00 | 0.00 | 74 | 1018.7 |
| 20260507133146 | 30 | 143 | 6.4 | 12.9 | 0.00 | 0.00 | 0.00 | 72 | 1018.7 |
| 20260507132643 | 30 | 164 | 3.2 | 9.7 | 0.00 | 0.00 | 0.00 | 74 | 1018.7 |
| 20260507132139 | 30 | 133 | 8.0 | 12.9 | 0.00 | 0.00 | 0.00 | 74 | 1018.6 |
| 20260507131636 | 30 | 100 | 4.8 | 11.3 | 0.00 | 0.00 | 0.00 | 75 | 1018.4 |
| 20260507131134 | 30 | 48 | 3.2 | 9.7 | 0.00 | 0.00 | 0.00 | 75 | 1018.3 |
| 20260507130630 | 30 | 196 | 1.6 | 4.8 | 0.00 | 0.00 | 0.00 | 73 | 1018.4 |
| 20260507130128 | 30 | 110 | 4.8 | 9.7 | 0.00 | 0.00 | 0.00 | 73 | 1018.2 |
| 20260507125627 | 29 | 139 | 4.8 | 6.4 | 0.00 | 0.00 | 0.00 | 74 | 1018.2 |
| 20260507125124 | 28 | 131 | 3.2 | 4.8 | 0.00 | 0.00 | 0.00 | 74 | 1018.4 |
| 20260507124620 | 29 | 80 | 3.2 | 6.4 | 0.00 | 0.00 | 0.00 | 72 | 1018.2 |
| 20260507124118 | 30 | 226 | 1.6 | 4.8 | 0.00 | 0.00 | 0.00 | 71 | 1018.2 |
| 20260507123616 | 30 | 116 | 1.6 | 4.8 | 0.00 | 0.00 | 0.00 | 71 | 1018.1 |
| 20260507123113 | 30 | 265 | 1.6 | 9.7 | 0.00 | 0.00 | 0.00 | 71 | 1018.1 |
| 20260507122608 | 30 | 239 | 0.0 | 4.8 | 0.00 | 0.00 | 0.00 | 71 | 1018.1 |
| 20260507122104 | 29 | 106 | 4.8 | 6.4 | 0.00 | 0.00 | 0.00 | 72 | 1017.9 |
| 20260507121600 | 29 | 230 | 0.0 | 9.7 | 0.00 | 0.00 | 0.00 | 73 | 1018.0 |
| 20260507121056 | 29 | 198 | 3.2 | 4.8 | 0.00 | 0.00 | 0.00 | 73 | 1017.9 |
| 20260507120552 | 29 | 193 | 1.6 | 3.2 | 0.00 | 0.00 | 0.00 | 73 | 1017.8 |
| 20260507120049 | 29 | 163 | 3.2 | 9.7 | 0.00 | 0.00 | 0.00 | 74 | 1017.8 |
| 20260507115545 | 28 | 239 | 0.0 | 4.8 | 0.00 | 0.00 | 0.00 | 75 | 1017.9 |
| 20260507115041 | 28 | 209 | 1.6 | 3.2 | 0.00 | 0.00 | 0.00 | 76 | 1017.6 |
| 20260507114537 | 28 | 238 | 0.0 | 1.6 | 0.00 | 0.00 | 0.00 | 78 | 1017.9 |
| 20260507114035 | 27 | 242 | 0.0 | 6.4 | 0.00 | 0.00 | 0.00 | 79 | 1017.7 |
| 20260507113532 | 27 | 163 | 1.6 | 4.8 | 0.00 | 0.00 | 0.00 | 79 | 1017.3 |
| 20260507113029 | 27 | 118 | 3.2 | 6.4 | 0.00 | 0.00 | 0.00 | 79 | 1017.4 |
| 20260507112526 | 27 | 217 | 0.0 | 3.2 | 0.00 | 0.00 | 0.00 | 80 | 1017.4 |
| 20260507112023 | 27 | 217 | 1.6 | 3.2 | 0.00 | 0.00 | 0.00 | 81 | 1017.4 |
| 20260507111520 | 27 | 202 | 0.0 | 0.0 | 0.00 | 0.00 | 0.00 | 83 | 1017.6 |
| 20260507111016 | 26 | 208 | 0.0 | 0.0 | 0.00 | 0.00 | 0.00 | 84 | 1017.3 |
| 20260507110513 | 26 | 242 | 0.0 | 1.6 | 0.00 | 0.00 | 0.00 | 86 | 1017.3 |
| 20260507110010 | 25 | 210 | 0.0 | 1.6 | 0.00 | 0.00 | 0.00 | 88 | 1017.4 |
| 20260507105507 | 25 | 208 | 0.0 | 0.0 | 0.00 | 0.00 | 0.00 | 89 | 1017.3 |
| 20260507105003 | 25 | 210 | 0.0 | 1.6 | 0.00 | 0.00 | 0.00 | 90 | 1017.3 |
| 20260507104500 | 24 | 205 | 0.0 | 3.2 | 0.00 | 0.00 | 0.00 | 90 | 1017.4 |
| 20260507103956 | 24 | 207 | 0.0 | 1.6 | 0.00 | 0.00 | 0.00 | 90 | 1017.3 |
| 20260507103453 | 24 | 231 | 0.0 | 1.6 | 0.00 | 0.00 | 0.00 | 90 | 1017.2 |
| 20260507102949 | 23 | 233 | 0.0 | 0.0 | 0.00 | 0.00 | 0.00 | 90 | 1017.4 |
| 20260507102446 | 23 | 231 | 0.0 | 0.0 | 0.00 | 0.00 | 0.00 | 90 | 1017.2 |
| 20260507101942 | 23 | 239 | 0.0 | 0.0 | 0.00 | 0.00 | 0.00 | 90 | 1017.2 |
| 20260507101437 | 23 | 239 | 0.0 | 0.0 | 0.00 | 0.00 | 0.00 | 90 | 1017.2 |
| 20260507100934 | 23 | 239 | 0.0 | 0.0 | 0.00 | 0.00 | 0.00 | 90 | 1017.2 |
| 20260507100432 | 23 | 239 | 0.0 | 0.0 | 0.00 | 0.00 | 0.00 | 89 | 1017.1 |
| 20260507095930 | 23 | 230 | 0.0 | 0.0 | 0.00 | 0.00 | 0.00 | 90 | 1016.8 |
| 20260507095427 | 23 | 230 | 0.0 | 0.0 | 0.00 | 0.00 | 0.00 | 90 | 1016.9 |
| 20260507094924 | 23 | 230 | 0.0 | 0.0 | 0.00 | 0.00 | 0.00 | 89 | 1016.8 |
| 20260507094420 | 23 | 218 | 0.0 | 0.0 | 0.00 | 0.00 | 0.00 | 89 | 1016.8 |
| 20260507093917 | 23 | 221 | 0.0 | 0.0 | 0.00 | 0.00 | 0.00 | 89 | 1016.8 |
| 20260507093415 | 23 | 234 | 0.0 | 1.6 | 0.00 | 0.00 | 0.00 | 89 | 1016.6 |
| 20260507092913 | 23 | 225 | 0.0 | 0.0 | 0.00 | 0.00 | 0.00 | 89 | 1016.6 |
| 20260507092409 | 24 | 246 | 0.0 | 0.0 | 0.00 | 0.00 | 0.00 | 89 | 1016.8 |
| 20260507091906 | 24 | 215 | 0.0 | 0.0 | 0.00 | 0.00 | 0.00 | 89 | 1016.8 |
| 20260507091402 | 24 | 218 | 0.0 | 0.0 | 0.00 | 0.00 | 0.00 | 89 | 1016.9 |
| 20260507090858 | 24 | 227 | 0.0 | 0.0 | 0.00 | 0.00 | 0.00 | 89 | 1016.7 |
| 20260507090354 | 24 | 214 | 0.0 | 0.0 | 0.00 | 0.00 | 0.00 | 89 | 1016.7 |
| 20260507085851 | 24 | 241 | 0.0 | 0.0 | 0.00 | 0.00 | 0.00 | 89 | 1016.9 |
| 20260507085348 | 24 | 218 | 0.0 | 0.0 | 0.00 | 0.00 | 0.00 | 89 | 1016.8 |
| 20260507084845 | 24 | 211 | 0.0 | 0.0 | 0.00 | 0.00 | 0.00 | 89 | 1017.1 |
| 20260507084342 | 24 | 216 | 0.0 | 0.0 | 0.00 | 0.00 | 0.00 | 89 | 1017.0 |
| 20260507083839 | 24 | 222 | 0.0 | 0.0 | 0.00 | 0.00 | 0.00 | 89 | 1016.9 |
| 20260507083335 | 24 | 213 | 0.0 | 0.0 | 0.00 | 0.00 | 0.00 | 89 | 1017.0 |
| 20260507082832 | 24 | 212 | 0.0 | 0.0 | 0.00 | 0.00 | 0.00 | 89 | 1016.9 |
| 20260507082327 | 24 | 216 | 0.0 | 0.0 | 0.00 | 0.00 | 0.00 | 88 | 1017.0 |
| 20260507081825 | 24 | 216 | 0.0 | 0.0 | 0.00 | 0.00 | 0.00 | 88 | 1016.9 |
| 20260507081321 | 24 | 216 | 0.0 | 0.0 | 0.00 | 0.00 | 0.00 | 88 | 1016.9 |
| 20260507080817 | 24 | 216 | 0.0 | 0.0 | 0.00 | 0.00 | 0.00 | 88 | 1017.0 |
| 20260507080314 | 24 | 216 | 0.0 | 0.0 | 0.00 | 0.00 | 0.00 | 88 | 1016.9 |
| 20260507075809 | 24 | 216 | 0.0 | 0.0 | 0.00 | 0.00 | 0.00 | 88 | 1016.9 |
| 20260507075307 | 24 | 218 | 0.0 | 0.0 | 0.00 | 0.00 | 0.00 | 88 | 1016.9 |
| 20260507074802 | 24 | 218 | 0.0 | 0.0 | 0.00 | 0.00 | 0.00 | 87 | 1016.8 |
| 20260507074300 | 25 | 217 | 0.0 | 0.0 | 0.00 | 0.00 | 0.00 | 88 | 1016.7 |
| 20260507073757 | 25 | 230 | 0.0 | 0.0 | 0.00 | 0.00 | 0.00 | 87 | 1017.2 |
| 20260507073253 | 25 | 235 | 0.0 | 0.0 | 0.00 | 0.00 | 0.00 | 87 | 1016.9 |
| 20260507072751 | 25 | 210 | 0.0 | 0.0 | 0.00 | 0.00 | 0.00 | 87 | 1016.9 |
| 20260507072248 | 25 | 215 | 0.0 | 0.0 | 0.00 | 0.00 | 0.00 | 87 | 1017.1 |
| 20260507071746 | 25 | 214 | 0.0 | 0.0 | 0.00 | 0.00 | 0.00 | 87 | 1017.2 |
| 20260507071241 | 25 | 232 | 0.0 | 0.0 | 0.00 | 0.00 | 0.00 | 87 | 1017.2 |
| 20260507070739 | 25 | 222 | 0.0 | 0.0 | 0.00 | 0.00 | 0.00 | 87 | 1017.3 |
| 20260507070236 | 25 | 233 | 0.0 | 0.0 | 0.00 | 0.00 | 0.00 | 87 | 1017.2 |
| 20260507065732 | 25 | 193 | 0.0 | 0.0 | 0.00 | 0.00 | 0.00 | 87 | 1017.3 |
| 20260507065229 | 25 | 219 | 0.0 | 0.0 | 0.00 | 0.00 | 0.00 | 87 | 1017.2 |
| 20260507064726 | 25 | 227 | 0.0 | 0.0 | 0.00 | 0.00 | 0.00 | 87 | 1017.2 |
| 20260507064226 | 25 | 227 | 0.0 | 0.0 | 0.00 | 0.00 | 0.00 | 87 | 1017.3 |
| 20260507063722 | 25 | 227 | 0.0 | 0.0 | 0.00 | 0.00 | 0.00 | 87 | 1017.5 |
| 20260507063219 | 25 | 227 | 0.0 | 0.0 | 0.00 | 0.00 | 0.00 | 86 | 1017.5 |
| 20260507062716 | 25 | 227 | 0.0 | 0.0 | 0.00 | 0.00 | 0.00 | 86 | 1017.5 |
| 20260507062213 | 25 | 223 | 0.0 | 0.0 | 0.00 | 0.00 | 0.00 | 86 | 1017.5 |
| 20260507061711 | 25 | 223 | 0.0 | 0.0 | 0.00 | 0.00 | 0.00 | 86 | 1017.6 |
| 20260507061209 | 25 | 214 | 0.0 | 0.0 | 0.00 | 0.00 | 0.00 | 86 | 1017.8 |
| 20260507060707 | 25 | 236 | 0.0 | 0.0 | 0.00 | 0.00 | 0.00 | 86 | 1017.7 |
| 20260507060203 | 25 | 218 | 0.0 | 0.0 | 0.00 | 0.00 | 0.00 | 86 | 1017.9 |
| 20260507055659 | 25 | 219 | 0.0 | 0.0 | 0.00 | 0.00 | 0.00 | 86 | 1017.8 |
| 20260507055155 | 25 | 214 | 0.0 | 0.0 | 0.00 | 0.00 | 0.00 | 86 | 1017.9 |
| 20260507054651 | 25 | 235 | 0.0 | 0.0 | 0.00 | 0.00 | 0.00 | 85 | 1017.8 |
| 20260507054148 | 25 | 235 | 0.0 | 0.0 | 0.00 | 0.00 | 0.00 | 85 | 1017.9 |
| 20260507053646 | 25 | 239 | 0.0 | 0.0 | 0.00 | 0.00 | 0.00 | 85 | 1018.0 |
| 20260507053144 | 25 | 243 | 0.0 | 0.0 | 0.00 | 0.00 | 0.00 | 85 | 1018.2 |
| 20260507052642 | 25 | 228 | 0.0 | 0.0 | 0.00 | 0.00 | 0.00 | 85 | 1018.3 |
| 20260507052138 | 25 | 223 | 0.0 | 0.0 | 0.00 | 0.00 | 0.00 | 85 | 1018.1 |
| 20260507051636 | 25 | 235 | 0.0 | 0.0 | 0.00 | 0.00 | 0.00 | 85 | 1018.2 |
| 20260507051132 | 25 | 232 | 0.0 | 0.0 | 0.00 | 0.00 | 0.00 | 85 | 1018.3 |
| 20260507050629 | 25 | 231 | 0.0 | 0.0 | 0.00 | 0.00 | 0.00 | 85 | 1018.4 |
| 20260507050126 | 25 | 248 | 0.0 | 0.0 | 0.00 | 0.00 | 0.00 | 85 | 1018.5 |
| 20260507045623 | 25 | 215 | 0.0 | 0.0 | 0.00 | 0.00 | 0.00 | 85 | 1018.5 |
| 20260507045119 | 25 | 210 | 0.0 | 0.0 | 0.00 | 0.00 | 0.00 | 85 | 1018.5 |
| 20260507044616 | 25 | 210 | 0.0 | 0.0 | 0.00 | 0.00 | 0.00 | 85 | 1018.7 |
| 20260507044113 | 25 | 234 | 0.0 | 0.0 | 0.00 | 0.00 | 0.00 | 85 | 1018.6 |
| 20260507043609 | 25 | 233 | 0.0 | 0.0 | 0.00 | 0.00 | 0.00 | 85 | 1018.7 |
| 20260507043106 | 25 | 233 | 0.0 | 0.0 | 0.00 | 0.00 | 0.00 | 85 | 1018.9 |
| 20260507042602 | 25 | 241 | 0.0 | 0.0 | 0.00 | 0.00 | 0.00 | 84 | 1019.1 |
| 20260507042057 | 25 | 240 | 0.0 | 0.0 | 0.00 | 0.00 | 0.00 | 84 | 1019.2 |
| 20260507041555 | 25 | 241 | 0.0 | 0.0 | 0.00 | 0.00 | 0.00 | 83 | 1019.0 |
| 20260507041052 | 25 | 240 | 0.0 | 0.0 | 0.00 | 0.00 | 0.00 | 83 | 1019.1 |
| 20260507040548 | 25 | 226 | 0.0 | 0.0 | 0.00 | 0.00 | 0.00 | 83 | 1019.1 |
| 20260507040044 | 25 | 234 | 0.0 | 0.0 | 0.00 | 0.00 | 0.00 | 83 | 1019.1 |
| 20260507035540 | 25 | 226 | 0.0 | 0.0 | 0.00 | 0.00 | 0.00 | 83 | 1019.4 |
| 20260507035037 | 25 | 226 | 0.0 | 0.0 | 0.00 | 0.00 | 0.00 | 82 | 1019.4 |
| 20260507034534 | 26 | 224 | 0.0 | 0.0 | 0.00 | 0.00 | 0.00 | 82 | 1019.2 |
| 20260507034032 | 26 | 226 | 0.0 | 0.0 | 0.00 | 0.00 | 0.00 | 82 | 1019.3 |
| 20260507033529 | 26 | 214 | 0.0 | 0.0 | 0.00 | 0.00 | 0.00 | 82 | 1019.3 |
| 20260507033027 | 25 | 219 | 0.0 | 0.0 | 0.00 | 0.00 | 0.00 | 82 | 1019.3 |
| 20260507032524 | 25 | 226 | 0.0 | 0.0 | 0.00 | 0.00 | 0.00 | 81 | 1019.2 |
| 20260507032020 | 25 | 226 | 0.0 | 1.6 | 0.00 | 0.00 | 0.00 | 81 | 1019.4 |
| 20260507031516 | 25 | 217 | 0.0 | 0.0 | 0.00 | 0.00 | 0.00 | 81 | 1019.5 |
| 20260507031014 | 26 | 248 | 0.0 | 0.0 | 0.00 | 0.00 | 0.00 | 81 | 1019.3 |
| 20260507030510 | 26 | 237 | 0.0 | 0.0 | 0.00 | 0.00 | 0.00 | 80 | 1019.5 |
| 20260507030008 | 26 | 241 | 0.0 | 1.6 | 0.00 | 0.00 | 0.00 | 80 | 1019.4 |
| 20260507025504 | 26 | 225 | 0.0 | 1.6 | 0.00 | 0.00 | 0.00 | 80 | 1019.5 |
| 20260507025002 | 26 | 225 | 0.0 | 0.0 | 0.00 | 0.00 | 0.00 | 79 | 1019.4 |
| 20260507024459 | 26 | 225 | 0.0 | 0.0 | 0.00 | 0.00 | 0.00 | 79 | 1019.4 |
| 20260507023955 | 26 | 242 | 0.0 | 1.6 | 0.00 | 0.00 | 0.00 | 79 | 1019.6 |
| 20260507023452 | 26 | 227 | 0.0 | 1.6 | 0.00 | 0.00 | 0.00 | 79 | 1019.4 |
| 20260507022949 | 26 | 204 | 0.0 | 1.6 | 0.00 | 0.00 | 0.00 | 78 | 1019.3 |
| 20260507022447 | 26 | 231 | 0.0 | 1.6 | 0.00 | 0.00 | 0.00 | 78 | 1019.4 |
| 20260507021942 | 26 | 226 | 0.0 | 1.6 | 0.00 | 0.00 | 0.00 | 77 | 1019.3 |
| 20260507021437 | 26 | 222 | 0.0 | 0.0 | 0.00 | 0.00 | 0.00 | 77 | 1019.2 |
| 20260507020935 | 26 | 237 | 0.0 | 0.0 | 0.00 | 0.00 | 0.00 | 76 | 1019.2 |
| 20260507020432 | 26 | 246 | 0.0 | 1.6 | 0.00 | 0.00 | 0.00 | 76 | 1019.1 |
| 20260507015929 | 26 | 218 | 0.0 | 0.0 | 0.00 | 0.00 | 0.00 | 76 | 1019.2 |
| 20260507015427 | 26 | 213 | 0.0 | 3.2 | 0.00 | 0.00 | 0.00 | 76 | 1019.0 |
| 20260507014924 | 27 | 217 | 0.0 | 1.6 | 0.00 | 0.00 | 0.00 | 76 | 1018.9 |
| 20260507014420 | 27 | 215 | 0.0 | 0.0 | 0.00 | 0.00 | 0.00 | 76 | 1018.9 |
| 20260507013916 | 27 | 233 | 0.0 | 0.0 | 0.00 | 0.00 | 0.00 | 76 | 1018.9 |
| 20260507013413 | 26 | 219 | 0.0 | 0.0 | 0.00 | 0.00 | 0.00 | 76 | 1018.7 |
| 20260507012911 | 26 | 227 | 0.0 | 0.0 | 0.00 | 0.00 | 0.00 | 75 | 1018.9 |
| 20260507012408 | 27 | 238 | 0.0 | 0.0 | 0.00 | 0.00 | 0.00 | 75 | 1018.9 |
| 20260507011904 | 27 | 203 | 0.0 | 0.0 | 0.00 | 0.00 | 0.00 | 74 | 1018.8 |
| 20260507011401 | 27 | 222 | 0.0 | 0.0 | 0.00 | 0.00 | 0.00 | 74 | 1018.7 |
| 20260507010901 | 27 | 203 | 0.0 | 0.0 | 0.00 | 0.00 | 0.00 | 74 | 1018.6 |
| 20260507010356 | 27 | 223 | 0.0 | 1.6 | 0.00 | 0.00 | 0.00 | 74 | 1018.5 |
| 20260507005854 | 27 | 203 | 1.6 | 3.2 | 0.00 | 0.00 | 0.00 | 74 | 1018.5 |
| 20260507005351 | 27 | 212 | 0.0 | 3.2 | 0.00 | 0.00 | 0.00 | 74 | 1018.4 |
| 20260507004848 | 27 | 221 | 0.0 | 0.0 | 0.00 | 0.00 | 0.00 | 73 | 1018.4 |
| 20260507004345 | 27 | 207 | 0.0 | 3.2 | 0.00 | 0.00 | 0.00 | 73 | 1018.2 |
| 20260507003842 | 27 | 187 | 3.2 | 4.8 | 0.00 | 0.00 | 0.00 | 72 | 1018.3 |
| 20260507003337 | 27 | 203 | 0.0 | 3.2 | 0.00 | 0.00 | 0.00 | 72 | 1018.2 |
| 20260507002832 | 27 | 301 | 1.6 | 3.2 | 0.00 | 0.00 | 0.00 | 72 | 1018.2 |
| 20260507002328 | 27 | 154 | 1.6 | 6.4 | 0.00 | 0.00 | 0.00 | 72 | 1018.1 |
| 20260507001826 | 28 | 234 | 3.2 | 4.8 | 0.00 | 0.00 | 0.00 | 72 | 1018.1 |
| 20260507001323 | 28 | 210 | 1.6 | 4.8 | 0.00 | 0.00 | 0.00 | 71 | 1017.9 |
| 20260507000819 | 28 | 217 | 0.0 | 3.2 | 0.00 | 0.00 | 0.00 | 71 | 1017.8 |
| 20260507000315 | 28 | 219 | 0.0 | 4.8 | 0.00 | 0.00 | 0.00 | 71 | 1018.0 |
| 20260506235812 | 28 | 183 | 1.6 | 3.2 | 0.00 | 0.00 | 0.00 | 71 | 1017.8 |
| 20260506235308 | 28 | 208 | 1.6 | 3.2 | 0.00 | 0.00 | 0.00 | 71 | 1017.6 |
| 20260506234805 | 28 | 207 | 1.6 | 4.8 | 0.00 | 0.00 | 0.00 | 71 | 1017.5 |
| 20260506234302 | 28 | 206 | 1.6 | 3.2 | 0.00 | 0.00 | 0.00 | 70 | 1017.6 |
| 20260506233800 | 28 | 153 | 3.2 | 3.2 | 0.00 | 0.00 | 0.00 | 70 | 1017.6 |
| 20260506233256 | 28 | 201 | 4.8 | 4.8 | 0.00 | 0.00 | 0.00 | 70 | 1017.4 |
| 20260506232747 | 28 | 197 | 0.0 | 4.8 | 0.00 | 0.00 | 0.00 | 69 | 1017.4 |
| 20260506232247 | 28 | 137 | 0.0 | 3.2 | 0.00 | 0.00 | 0.00 | 69 | 1017.1 |
| 20260506231745 | 29 | 148 | 1.6 | 3.2 | 0.00 | 0.00 | 0.00 | 68 | 1017.1 |
| 20260506231243 | 29 | 230 | 0.0 | 6.4 | 0.00 | 0.00 | 0.00 | 68 | 1017.0 |
| 20260506230740 | 29 | 113 | 1.6 | 3.2 | 0.00 | 0.00 | 0.00 | 67 | 1017.0 |
| 20260506230237 | 29 | 170 | 3.2 | 4.8 | 0.00 | 0.00 | 0.00 | 66 | 1016.9 |
| 20260506225733 | 30 | 229 | 0.0 | 6.4 | 0.00 | 0.00 | 0.00 | 66 | 1016.8 |
| 20260506225230 | 30 | 240 | 0.0 | 1.6 | 0.00 | 0.00 | 0.00 | 65 | 1016.8 |
| 20260506224726 | 30 | 144 | 1.6 | 4.8 | 0.00 | 0.00 | 0.00 | 65 | 1016.6 |
| 20260506224224 | 30 | 164 | 4.8 | 6.4 | 0.00 | 0.00 | 0.00 | 64 | 1016.7 |
| 20260506223720 | 30 | 204 | 1.6 | 3.2 | 0.00 | 0.00 | 0.00 | 64 | 1016.4 |
| 20260506223216 | 30 | 237 | 3.2 | 6.4 | 0.00 | 0.00 | 0.00 | 64 | 1016.4 |
| 20260506222713 | 30 | 158 | 1.6 | 3.2 | 0.00 | 0.00 | 0.00 | 65 | 1016.3 |
| 20260506222208 | 30 | 228 | 0.0 | 1.6 | 0.00 | 0.00 | 0.00 | 69 | 1016.4 |